Time;durP1;ratioP1;P1;durP2;ratioP2;P2;SDS_P1;SDS_P2;PMS_P1;PMS_P2;Temp;Humidity;BMP_temperature;BMP_pressure;BME280_temperature;BME280_humidity;BME280_pressure;Samples;Min_cycle;Max_cycle;Signal;HPM_P1;HPM_P2
2023/11/29 00:01:37;;;;;;;14.55;13.10;;;;;;;;;;5031416;28;20414;-43
2023/11/29 00:04:03;;;;;;;14.67;13.27;;;;;;;;;;5025226;28;20259;-43
2023/11/29 00:06:29;;;;;;;16.33;14.77;;;;;;;;;;5026177;28;20414;-43
2023/11/29 00:08:57;;;;;;;13.03;11.73;;;;;;;;;;5026425;28;20583;-43
2023/11/29 00:11:23;;;;;;;16.38;14.73;;;;;;;;;;5027031;28;20410;-44
2023/11/29 00:13:49;;;;;;;17.20;15.77;;;;;;;;;;5026519;28;20648;-43
2023/11/29 00:16:15;;;;;;;13.80;12.40;;;;;;;;;;5026690;28;20403;-42
2023/11/29 00:18:41;;;;;;;14.30;12.87;;;;;;;;;;5030997;28;20790;-44
2023/11/29 00:21:07;;;;;;;17.92;16.30;;;;;;;;;;5029374;28;20416;-43
2023/11/29 00:23:34;;;;;;;13.85;12.55;;;;;;;;;;5018816;28;20245;-43
2023/11/29 00:26:00;;;;;;;15.43;13.98;;;;;;;;;;5026660;28;20279;-44
2023/11/29 00:28:25;;;;;;;17.40;15.73;;;;;;;;;;5023292;28;20303;-43
2023/11/29 00:30:51;;;;;;;15.63;14.20;;;;;;;;;;5026163;28;20413;-43
2023/11/29 00:33:17;;;;;;;15.60;14.10;;;;;;;;;;5026179;28;20400;-44
2023/11/29 00:35:43;;;;;;;19.17;17.37;;;;;;;;;;5025282;28;20773;-44
2023/11/29 00:38:09;;;;;;;17.70;16.20;;;;;;;;;;5022163;28;20519;-43
2023/11/29 00:40:35;;;;;;;19.40;17.70;;;;;;;;;;5024400;28;20912;-43
2023/11/29 00:43:01;;;;;;;17.57;16.00;;;;;;;;;;5028348;28;20502;-44
2023/11/29 00:45:27;;;;;;;20.07;18.20;;;;;;;;;;5025608;28;20963;-43
2023/11/29 00:47:53;;;;;;;17.47;15.87;;;;;;;;;;5025641;28;20961;-43
2023/11/29 00:50:19;;;;;;;17.30;15.70;;;;;;;;;;5025562;28;20418;-43
2023/11/29 00:52:45;;;;;;;17.93;16.30;;;;;;;;;;5022560;28;20490;-43
2023/11/29 00:55:11;;;;;;;19.00;17.40;;;;;;;;;;5022808;28;20408;-43
2023/11/29 00:57:37;;;;;;;18.23;16.60;;;;;;;;;;5030058;28;20461;-43
2023/11/29 01:00:05;;;;;;;15.53;14.13;;;;;;;;;;5028350;28;20207;-43
2023/11/29 01:02:31;;;;;;;17.38;15.82;;;;;;;;;;5025475;28;20401;-44
2023/11/29 01:04:57;;;;;;;18.37;16.70;;;;;;;;;;5025333;28;20643;-44
2023/11/29 01:07:23;;;;;;;17.17;15.63;;;;;;;;;;5025481;28;20423;-43
2023/11/29 01:09:49;;;;;;;18.58;16.95;;;;;;;;;;5025347;28;20814;-43
2023/11/29 01:12:16;;;;;;;18.02;16.42;;;;;;;;;;5025850;28;20515;-44
2023/11/29 01:14:42;;;;;;;15.80;14.43;;;;;;;;;;5030032;28;20164;-44
2023/11/29 01:17:07;;;;;;;16.83;15.30;;;;;;;;;;5028332;28;20543;-43
2023/11/29 01:19:33;;;;;;;17.30;15.77;;;;;;;;;;5017925;28;20772;-43
2023/11/29 01:21:59;;;;;;;20.67;18.97;;;;;;;;;;5021503;28;20502;-43
2023/11/29 01:24:25;;;;;;;17.00;15.52;;;;;;;;;;5022545;28;20418;-43
2023/11/29 01:26:51;;;;;;;19.90;18.20;;;;;;;;;;5024771;28;20180;-44
2023/11/29 01:29:17;;;;;;;16.83;15.33;;;;;;;;;;5024853;28;20204;-43
2023/11/29 01:31:44;;;;;;;19.00;17.40;;;;;;;;;;5024424;28;20416;-44
2023/11/29 01:34:10;;;;;;;17.38;15.77;;;;;;;;;;5022476;28;20422;-44
2023/11/29 01:36:40;;;;;;;16.58;14.98;;;;;;;;;;5024182;28;20175;-43
2023/11/29 01:39:06;;;;;;;15.93;14.43;;;;;;;;;;5029169;28;20220;-43
2023/11/29 01:41:32;;;;;;;15.70;14.20;;;;;;;;;;5013650;28;20599;-44
2023/11/29 01:43:58;;;;;;;14.37;12.97;;;;;;;;;;5033052;28;20218;-44
2023/11/29 01:46:24;;;;;;;14.93;13.57;;;;;;;;;;5016965;28;20892;-44
2023/11/29 01:48:51;;;;;;;15.35;13.85;;;;;;;;;;5024442;28;20450;-44
2023/11/29 01:51:17;;;;;;;15.13;13.73;;;;;;;;;;5025156;28;20230;-44
2023/11/29 01:53:43;;;;;;;15.52;14.02;;;;;;;;;;5016723;28;20171;-44
2023/11/29 01:56:09;;;;;;;15.93;14.53;;;;;;;;;;5032682;28;20221;-44
2023/11/29 01:58:35;;;;;;;16.13;14.63;;;;;;;;;;5013189;28;20450;-43
2023/11/29 02:01:01;;;;;;;16.80;15.20;;;;;;;;;;5027528;28;20445;-44
2023/11/29 02:03:28;;;;;;;15.73;14.23;;;;;;;;;;5030647;28;20910;-45
2023/11/29 02:05:54;;;;;;;16.15;14.68;;;;;;;;;;5023936;28;20648;-43
2023/11/29 02:08:20;;;;;;;17.50;15.85;;;;;;;;;;4992017;28;20327;-43
2023/11/29 02:10:46;;;;;;;17.50;15.90;;;;;;;;;;4992846;28;20216;-43
2023/11/29 02:13:12;;;;;;;15.65;14.18;;;;;;;;;;5011827;28;20174;-44
2023/11/29 02:15:38;;;;;;;19.05;17.17;;;;;;;;;;4997663;28;20175;-44
2023/11/29 02:18:04;;;;;;;16.90;15.30;;;;;;;;;;5003648;28;20283;-44
2023/11/29 02:20:31;;;;;;;14.40;12.90;;;;;;;;;;5006304;28;20176;-44
2023/11/29 02:23:02;;;;;;;20.83;19.05;;;;;;;;;;5008928;28;20260;-43
2023/11/29 02:25:28;;;;;;;18.40;16.52;;;;;;;;;;5022599;28;20186;-43
2023/11/29 02:27:54;;;;;;;16.27;14.77;;;;;;;;;;5019386;28;20326;-44
2023/11/29 02:30:20;;;;;;;14.40;13.10;;;;;;;;;;5024600;28;20418;-44
2023/11/29 02:32:46;;;;;;;16.07;14.50;;;;;;;;;;5029616;28;20408;-43
2023/11/29 02:35:12;;;;;;;16.90;15.33;;;;;;;;;;5020455;28;20443;-44
2023/11/29 02:37:38;;;;;;;15.88;14.32;;;;;;;;;;5028199;28;20422;-43
2023/11/29 02:40:04;;;;;;;13.33;12.10;;;;;;;;;;5020728;28;20233;-44
2023/11/29 02:42:30;;;;;;;14.77;13.38;;;;;;;;;;5026447;28;20497;-44
2023/11/29 02:44:56;;;;;;;14.48;13.07;;;;;;;;;;5008069;28;20259;-44
2023/11/29 02:47:22;;;;;;;16.40;14.80;;;;;;;;;;5023318;28;20663;-44
2023/11/29 02:49:48;;;;;;;14.40;12.93;;;;;;;;;;5023373;28;20950;-43
2023/11/29 02:52:14;;;;;;;12.23;11.03;;;;;;;;;;5024340;28;20944;-44
2023/11/29 02:54:40;;;;;;;11.60;10.43;;;;;;;;;;5023440;28;20765;-44
2023/11/29 02:57:06;;;;;;;12.87;11.57;;;;;;;;;;5023363;28;20214;-44
2023/11/29 02:59:32;;;;;;;13.50;12.13;;;;;;;;;;5020707;28;20757;-44
2023/11/29 03:01:58;;;;;;;13.97;12.50;;;;;;;;;;5021889;28;20772;-44
2023/11/29 03:04:24;;;;;;;13.87;12.57;;;;;;;;;;5020654;28;20792;-44
2023/11/29 03:06:50;;;;;;;13.23;11.83;;;;;;;;;;5003727;28;20837;-43
2023/11/29 03:09:16;;;;;;;11.55;10.20;;;;;;;;;;5002182;28;20466;-44
2023/11/29 03:11:42;;;;;;;12.85;11.55;;;;;;;;;;5019947;28;20224;-43
2023/11/29 03:14:08;;;;;;;12.17;10.87;;;;;;;;;;5023842;28;20241;-44
2023/11/29 03:16:34;;;;;;;13.40;12.00;;;;;;;;;;5022372;28;20461;-43
2023/11/29 03:19:00;;;;;;;12.50;11.17;;;;;;;;;;5023975;28;20431;-44
2023/11/29 03:21:26;;;;;;;12.70;11.00;;;;;;;;;;5024386;28;20495;-44
2023/11/29 03:23:51;;;;;;;12.10;10.90;;;;;;;;;;5024060;28;20418;-44
2023/11/29 03:26:17;;;;;;;11.80;10.60;;;;;;;;;;5023759;28;20423;-44
2023/11/29 03:28:43;;;;;;;13.67;12.37;;;;;;;;;;5028932;28;20558;-44
2023/11/29 03:31:09;;;;;;;12.53;11.30;;;;;;;;;;5026287;28;20417;-44
2023/11/29 03:33:35;;;;;;;13.50;12.20;;;;;;;;;;5021220;28;20418;-44
2023/11/29 03:36:01;;;;;;;12.10;10.47;;;;;;;;;;5021849;28;20438;-44
2023/11/29 03:38:27;;;;;;;11.32;9.70;;;;;;;;;;5024906;28;20518;-44
2023/11/29 03:40:53;;;;;;;12.17;10.87;;;;;;;;;;5027206;28;20203;-44
2023/11/29 03:43:19;;;;;;;12.47;11.27;;;;;;;;;;5006867;28;20426;-44
2023/11/29 03:45:45;;;;;;;13.15;11.75;;;;;;;;;;5026957;28;20427;-44
2023/11/29 03:48:11;;;;;;;12.32;10.68;;;;;;;;;;5024410;28;20231;-44
2023/11/29 03:50:37;;;;;;;12.30;11.00;;;;;;;;;;5019290;28;20206;-44
2023/11/29 03:53:03;;;;;;;10.47;8.03;;;;;;;;;;5026841;28;20414;-44
2023/11/29 03:55:29;;;;;;;13.90;11.13;;;;;;;;;;5023903;28;20411;-43
2023/11/29 03:57:55;;;;;;;13.13;10.80;;;;;;;;;;5025723;28;20453;-43
2023/11/29 04:00:22;;;;;;;10.40;8.95;;;;;;;;;;5023484;28;20200;-43
2023/11/29 04:02:48;;;;;;;10.95;8.75;;;;;;;;;;5024941;28;20272;-44
2023/11/29 04:05:14;;;;;;;11.43;8.87;;;;;;;;;;5023132;28;20188;-44
2023/11/29 04:07:40;;;;;;;10.93;8.55;;;;;;;;;;5023365;28;20431;-43
2023/11/29 04:10:06;;;;;;;11.57;9.03;;;;;;;;;;5026921;28;20245;-43
2023/11/29 04:12:32;;;;;;;11.88;9.43;;;;;;;;;;5022292;28;20465;-44
2023/11/29 04:14:58;;;;;;;10.73;8.30;;;;;;;;;;5023438;28;20180;-44
2023/11/29 04:17:24;;;;;;;11.73;10.17;;;;;;;;;;5029637;28;20418;-43
2023/11/29 04:19:50;;;;;;;10.87;9.20;;;;;;;;;;5015674;28;20442;-43
2023/11/29 04:22:16;;;;;;;10.93;8.55;;;;;;;;;;5030964;28;20489;-43
2023/11/29 04:24:42;;;;;;;12.20;11.00;;;;;;;;;;5034050;28;20212;-43
2023/11/29 04:27:08;;;;;;;10.03;8.73;;;;;;;;;;5024797;28;20437;-43
2023/11/29 04:29:36;;;;;;;13.43;12.10;;;;;;;;;;5018300;28;20453;-43
2023/11/29 04:32:02;;;;;;;13.82;12.60;;;;;;;;;;5034057;28;20414;-43
2023/11/29 04:34:28;;;;;;;12.00;10.90;;;;;;;;;;5014750;28;20168;-44
2023/11/29 04:36:54;;;;;;;14.57;13.27;;;;;;;;;;4998271;28;20415;-44
2023/11/29 04:39:20;;;;;;;24.83;23.23;;;;;;;;;;5006678;28;20411;-44
2023/11/29 04:41:46;;;;;;;20.33;18.93;;;;;;;;;;5006399;28;20269;-44
2023/11/29 04:44:13;;;;;;;15.33;14.13;;;;;;;;;;4999039;28;20422;-43
2023/11/29 04:46:39;;;;;;;9.85;8.52;;;;;;;;;;5013840;28;20408;-44
2023/11/29 04:49:05;;;;;;;10.60;8.82;;;;;;;;;;4994720;28;20711;-44
2023/11/29 04:51:31;;;;;;;10.63;8.80;;;;;;;;;;5010234;28;20173;-44
2023/11/29 04:53:57;;;;;;;10.23;7.53;;;;;;;;;;5002753;28;20231;-43
2023/11/29 04:56:23;;;;;;;11.50;9.97;;;;;;;;;;5001740;28;20636;-43
2023/11/29 04:58:49;;;;;;;9.80;7.53;;;;;;;;;;5010564;28;20894;-43
2023/11/29 05:01:15;;;;;;;11.10;8.97;;;;;;;;;;4994627;28;20408;-44
2023/11/29 05:03:41;;;;;;;12.33;11.13;;;;;;;;;;5013509;28;20419;-43
2023/11/29 05:06:08;;;;;;;12.90;11.70;;;;;;;;;;4998771;28;20408;-44
2023/11/29 05:08:34;;;;;;;10.23;7.75;;;;;;;;;;5005096;28;20504;-43
2023/11/29 05:11:06;;;;;;;10.57;7.60;;;;;;;;;;5006459;28;20257;-44
2023/11/29 05:13:33;;;;;;;9.25;6.82;;;;;;;;;;4998127;28;20215;-44
2023/11/29 05:15:59;;;;;;;9.20;6.45;;;;;;;;;;5013435;28;20633;-44
2023/11/29 05:18:26;;;;;;;10.80;7.97;;;;;;;;;;4994247;28;20282;-44
2023/11/29 05:20:52;;;;;;;10.50;6.88;;;;;;;;;;5009725;28;20176;-44
2023/11/29 05:23:18;;;;;;;10.37;7.33;;;;;;;;;;5013367;28;20643;-44
2023/11/29 05:25:44;;;;;;;10.63;7.40;;;;;;;;;;5005784;28;20503;-44
2023/11/29 05:28:10;;;;;;;11.13;9.83;;;;;;;;;;4997182;28;20528;-44
2023/11/29 05:30:36;;;;;;;10.73;8.67;;;;;;;;;;5013545;28;20423;-43
2023/11/29 05:33:05;;;;;;;10.57;8.33;;;;;;;;;;4994326;28;20465;-44
2023/11/29 05:35:31;;;;;;;11.73;8.68;;;;;;;;;;5009033;28;20434;-44
2023/11/29 05:37:57;;;;;;;9.60;6.60;;;;;;;;;;5001445;28;20189;-44
2023/11/29 05:40:24;;;;;;;9.57;6.53;;;;;;;;;;5001298;28;20183;-44
2023/11/29 05:42:50;;;;;;;10.00;7.15;;;;;;;;;;5009811;28;20175;-44
2023/11/29 05:45:16;;;;;;;10.20;6.60;;;;;;;;;;4993721;28;20169;-44
2023/11/29 05:47:41;;;;;;;10.97;7.07;;;;;;;;;;5012212;28;20430;-44
2023/11/29 05:50:08;;;;;;;10.17;6.47;;;;;;;;;;4998014;28;20919;-44
2023/11/29 05:52:33;;;;;;;9.52;5.80;;;;;;;;;;5004530;28;20930;-44
2023/11/29 05:55:00;;;;;;;9.73;6.23;;;;;;;;;;5006042;28;20183;-44
2023/11/29 05:57:26;;;;;;;11.23;7.20;;;;;;;;;;4996021;28;20424;-44
2023/11/29 05:59:55;;;;;;;10.02;6.47;;;;;;;;;;5013076;28;20190;-44
2023/11/29 06:02:21;;;;;;;10.32;6.10;;;;;;;;;;4993740;28;20173;-44
2023/11/29 06:04:47;;;;;;;9.73;5.93;;;;;;;;;;5008261;28;20662;-44
2023/11/29 06:07:13;;;;;;;10.90;6.50;;;;;;;;;;5001563;28;20430;-44
2023/11/29 06:09:39;;;;;;;9.63;5.93;;;;;;;;;;4999949;28;20467;-44
2023/11/29 06:12:06;;;;;;;9.98;5.80;;;;;;;;;;5009588;28;20978;-44
2023/11/29 06:14:32;;;;;;;10.30;6.22;;;;;;;;;;4993603;28;20193;-44
2023/11/29 06:16:58;;;;;;;10.70;6.53;;;;;;;;;;5011466;28;20182;-44
2023/11/29 06:19:24;;;;;;;8.50;4.90;;;;;;;;;;4997991;28;20226;-44
2023/11/29 06:21:50;;;;;;;10.40;6.57;;;;;;;;;;5003487;28;20191;-44
2023/11/29 06:24:16;;;;;;;9.38;5.35;;;;;;;;;;5012106;28;20542;-44
2023/11/29 06:26:42;;;;;;;17.57;12.93;;;;;;;;;;5009279;28;20820;-44
2023/11/29 06:29:11;;;;;;;10.73;6.93;;;;;;;;;;5020041;28;20462;-44
2023/11/29 06:31:37;;;;;;;10.25;7.15;;;;;;;;;;5022706;28;20177;-44
2023/11/29 06:34:07;;;;;;;10.20;7.80;;;;;;;;;;5023070;28;20191;-44
2023/11/29 06:36:34;;;;;;;11.10;7.35;;;;;;;;;;5021918;28;20902;-44
2023/11/29 06:39:00;;;;;;;12.43;8.32;;;;;;;;;;5031777;28;20220;-44
2023/11/29 06:41:26;;;;;;;9.88;6.05;;;;;;;;;;5016875;28;20216;-44
2023/11/29 06:43:52;;;;;;;10.32;6.72;;;;;;;;;;5023964;28;20182;-44
2023/11/29 06:46:18;;;;;;;10.35;6.00;;;;;;;;;;5023419;28;20187;-44
2023/11/29 06:48:44;;;;;;;10.33;7.10;;;;;;;;;;5023492;28;20569;-44
2023/11/29 06:51:10;;;;;;;9.47;5.80;;;;;;;;;;5020777;28;20829;-44
2023/11/29 06:53:37;;;;;;;10.23;7.77;;;;;;;;;;5023192;28;20425;-44
2023/11/29 06:56:04;;;;;;;8.88;5.85;;;;;;;;;;5025879;28;20406;-43
2023/11/29 06:58:30;;;;;;;10.50;7.68;;;;;;;;;;5004420;28;20293;-44
2023/11/29 07:00:56;;;;;;;8.83;5.83;;;;;;;;;;5023269;28;20250;-44
2023/11/29 07:03:22;;;;;;;10.05;6.45;;;;;;;;;;5023440;28;20903;-44
2023/11/29 07:05:48;;;;;;;10.45;7.50;;;;;;;;;;5022432;28;20187;-44
2023/11/29 07:08:14;;;;;;;11.15;8.45;;;;;;;;;;5019739;28;20224;-43
2023/11/29 07:10:40;;;;;;;10.90;7.37;;;;;;;;;;5028053;28;20211;-43
2023/11/29 07:13:06;;;;;;;8.13;5.23;;;;;;;;;;5020283;28;20747;-44
2023/11/29 07:15:32;;;;;;;13.40;10.80;;;;;;;;;;5026275;28;20858;-44
2023/11/29 07:17:59;;;;;;;9.85;6.75;;;;;;;;;;5025111;28;20480;-44
2023/11/29 07:20:25;;;;;;;11.60;8.05;;;;;;;;;;5022083;28;20172;-44
2023/11/29 07:22:51;;;;;;;11.23;9.57;;;;;;;;;;5021592;28;20187;-44
2023/11/29 07:25:17;;;;;;;12.20;10.27;;;;;;;;;;5015241;28;20465;-44
2023/11/29 07:27:43;;;;;;;10.23;7.65;;;;;;;;;;5005100;28;20437;-44
2023/11/29 07:30:09;;;;;;;13.40;12.10;;;;;;;;;;5021346;28;20204;-43
2023/11/29 07:32:35;;;;;;;10.70;8.23;;;;;;;;;;5029346;28;20410;-44
2023/11/29 07:35:01;;;;;;;10.37;7.33;;;;;;;;;;5025795;28;20178;-43
2023/11/29 07:37:27;;;;;;;13.00;10.83;;;;;;;;;;5027515;28;20461;-43
2023/11/29 07:39:53;;;;;;;10.97;8.40;;;;;;;;;;5019772;28;20414;-44
2023/11/29 07:42:19;;;;;;;9.13;6.57;;;;;;;;;;5027746;28;20417;-44
2023/11/29 07:44:45;;;;;;;12.77;11.60;;;;;;;;;;5023225;28;20476;-43
2023/11/29 07:47:11;;;;;;;10.90;9.00;;;;;;;;;;5022759;28;20799;-44
2023/11/29 07:49:37;;;;;;;10.20;7.55;;;;;;;;;;5022185;28;20295;-44
2023/11/29 07:52:03;;;;;;;11.07;8.47;;;;;;;;;;5019725;28;20208;-44
2023/11/29 07:54:29;;;;;;;11.90;10.35;;;;;;;;;;5020725;28;20499;-44
2023/11/29 07:56:55;;;;;;;10.45;6.95;;;;;;;;;;5026132;28;20215;-43
2023/11/29 07:59:21;;;;;;;10.60;9.10;;;;;;;;;;5027639;28;20557;-43
2023/11/29 08:01:47;;;;;;;9.60;7.00;;;;;;;;;;5020491;28;20418;-44
2023/11/29 08:04:13;;;;;;;9.93;7.20;;;;;;;;;;5026660;28;20441;-44
2023/11/29 08:06:39;;;;;;;10.00;8.75;;;;;;;;;;5023886;28;20172;-44
2023/11/29 08:09:05;;;;;;;10.55;8.02;;;;;;;;;;5022869;28;20219;-44
2023/11/29 08:11:33;;;;;;;10.07;7.03;;;;;;;;;;5026203;28;20172;-44
2023/11/29 08:14:02;;;;;;;10.88;8.55;;;;;;;;;;5029665;28;20822;-44
2023/11/29 08:16:28;;;;;;;10.80;8.77;;;;;;;;;;5030940;28;20618;-44
2023/11/29 08:18:55;;;;;;;8.75;6.50;;;;;;;;;;5026290;28;20199;-44
2023/11/29 08:21:21;;;;;;;10.18;8.50;;;;;;;;;;5018057;28;20206;-44
2023/11/29 08:23:47;;;;;;;10.37;7.83;;;;;;;;;;5028071;28;20204;-44
2023/11/29 08:26:13;;;;;;;9.20;7.23;;;;;;;;;;5026006;28;20409;-44
2023/11/29 08:28:39;;;;;;;10.88;9.68;;;;;;;;;;5025846;28;20950;-44
2023/11/29 08:31:05;;;;;;;10.77;9.02;;;;;;;;;;5028364;28;20172;-44
2023/11/29 08:33:31;;;;;;;11.15;8.05;;;;;;;;;;5030852;28;20176;-44
2023/11/29 08:35:57;;;;;;;11.38;9.60;;;;;;;;;;5019287;28;20250;-44
2023/11/29 08:38:24;;;;;;;10.40;7.38;;;;;;;;;;5026962;28;20205;-44
2023/11/29 08:40:50;;;;;;;10.55;7.93;;;;;;;;;;5023561;28;20211;-44
2023/11/29 08:43:16;;;;;;;11.25;8.40;;;;;;;;;;5025875;28;20180;-44
2023/11/29 08:45:42;;;;;;;12.15;9.30;;;;;;;;;;5025966;28;20454;-43
2023/11/29 08:48:08;;;;;;;10.93;7.40;;;;;;;;;;5027376;28;20200;-43
2023/11/29 08:50:34;;;;;;;11.70;9.75;;;;;;;;;;5030435;28;20167;-44
2023/11/29 08:53:00;;;;;;;10.70;9.60;;;;;;;;;;5023793;28;20176;-44
2023/11/29 08:55:27;;;;;;;10.57;8.67;;;;;;;;;;5030218;28;20498;-44
2023/11/29 08:57:54;;;;;;;10.63;8.80;;;;;;;;;;5026667;28;20430;-44
2023/11/29 09:00:21;;;;;;;10.07;8.25;;;;;;;;;;5025557;28;20175;-44
2023/11/29 09:02:47;;;;;;;8.85;7.20;;;;;;;;;;5025589;28;20176;-43
2023/11/29 09:05:17;;;;;;;11.70;8.73;;;;;;;;;;5026344;28;20165;-44
2023/11/29 09:07:43;;;;;;;10.82;7.32;;;;;;;;;;5024899;28;20191;-44
2023/11/29 09:10:09;;;;;;;9.27;8.07;;;;;;;;;;5027026;28;20608;-44
2023/11/29 09:12:36;;;;;;;9.20;7.32;;;;;;;;;;5024944;28;20849;-44
2023/11/29 09:15:04;;;;;;;10.07;7.78;;;;;;;;;;5027933;28;20176;-44
2023/11/29 09:17:30;;;;;;;11.48;8.82;;;;;;;;;;5016972;28;20684;-43
2023/11/29 09:19:56;;;;;;;11.20;8.45;;;;;;;;;;5026478;28;20221;-44
2023/11/29 09:22:22;;;;;;;10.38;8.32;;;;;;;;;;5022101;28;20176;-43
2023/11/29 09:24:50;;;;;;;9.27;8.00;;;;;;;;;;5024879;28;20620;-43
2023/11/29 09:27:16;;;;;;;14.02;10.40;;;;;;;;;;5021374;28;20272;-44
2023/11/29 09:29:42;;;;;;;10.70;8.00;;;;;;;;;;5023315;28;20200;-43
2023/11/29 09:32:08;;;;;;;10.25;8.20;;;;;;;;;;5028136;28;20178;-44
2023/11/29 09:34:35;;;;;;;10.80;8.98;;;;;;;;;;5022923;28;20176;-44
2023/11/29 09:37:01;;;;;;;11.55;7.50;;;;;;;;;;5015038;28;20204;-44
2023/11/29 09:39:30;;;;;;;14.10;9.30;;;;;;;;;;5013480;28;20176;-44
2023/11/29 09:41:57;;;;;;;12.02;8.15;;;;;;;;;;5015643;28;20715;-44
2023/11/29 09:44:24;;;;;;;9.23;5.72;;;;;;;;;;5017496;28;20186;-44
2023/11/29 09:46:51;;;;;;;12.45;8.57;;;;;;;;;;5018501;28;20241;-43
2023/11/29 09:49:17;;;;;;;9.48;6.07;;;;;;;;;;5017836;28;20687;-44
2023/11/29 09:51:43;;;;;;;9.77;6.67;;;;;;;;;;5014053;28;20183;-44
2023/11/29 09:54:10;;;;;;;9.93;6.80;;;;;;;;;;5018411;28;20486;-43
2023/11/29 09:56:36;;;;;;;9.80;6.13;;;;;;;;;;5029686;28;20910;-44
2023/11/29 09:59:03;;;;;;;10.23;6.22;;;;;;;;;;5020142;28;20208;-44
2023/11/29 10:01:36;;;;;;;9.45;5.35;;;;;;;;;;5016596;28;20299;-43
2023/11/29 10:04:03;;;;;;;9.60;5.60;;;;;;;;;;5018424;28;20183;-44
2023/11/29 10:06:30;;;;;;;10.80;7.00;;;;;;;;;;5030856;28;20183;-44
2023/11/29 10:08:56;;;;;;;10.05;6.55;;;;;;;;;;5012694;28;20199;-44
2023/11/29 10:11:22;;;;;;;9.77;6.47;;;;;;;;;;5030287;28;20176;-44
2023/11/29 10:13:48;;;;;;;10.85;6.72;;;;;;;;;;5019146;28;20400;-44
2023/11/29 10:16:17;;;;;;;11.63;8.40;;;;;;;;;;5021870;28;20187;-44
2023/11/29 10:18:45;;;;;;;9.55;6.35;;;;;;;;;;5013869;28;20261;-44
2023/11/29 10:21:11;;;;;;;11.35;9.10;;;;;;;;;;5015705;28;20183;-43
2023/11/29 10:23:41;;;;;;;9.48;6.30;;;;;;;;;;5015330;28;20172;-44
2023/11/29 10:26:10;;;;;;;10.73;7.60;;;;;;;;;;5012779;28;20190;-44
2023/11/29 10:28:36;;;;;;;8.25;4.65;;;;;;;;;;5012463;28;20208;-44
2023/11/29 10:31:03;;;;;;;11.10;8.77;;;;;;;;;;5022735;28;20202;-43
2023/11/29 10:33:31;;;;;;;10.05;7.88;;;;;;;;;;5025583;28;20411;-44
2023/11/29 10:35:58;;;;;;;9.70;6.90;;;;;;;;;;5014990;28;20207;-44
2023/11/29 10:38:26;;;;;;;8.43;5.20;;;;;;;;;;5031953;28;20195;-43
2023/11/29 10:40:53;;;;;;;9.40;6.03;;;;;;;;;;5013037;28;20259;-43
2023/11/29 10:43:22;;;;;;;8.57;5.47;;;;;;;;;;5012642;28;20188;-44
2023/11/29 10:45:49;;;;;;;8.70;4.90;;;;;;;;;;5012090;28;20562;-44
2023/11/29 10:48:18;;;;;;;12.15;8.00;;;;;;;;;;5004933;28;20484;-44
2023/11/29 10:50:46;;;;;;;12.43;8.20;;;;;;;;;;4994484;28;20179;-44
2023/11/29 10:53:12;;;;;;;12.95;9.15;;;;;;;;;;5009182;28;20185;-43
2023/11/29 10:55:39;;;;;;;14.98;10.23;;;;;;;;;;5010482;28;20175;-44
2023/11/29 10:58:05;;;;;;;9.52;7.15;;;;;;;;;;5011542;28;20664;-44
2023/11/29 11:00:31;;;;;;;8.80;5.43;;;;;;;;;;5000716;28;20181;-44
2023/11/29 11:02:57;;;;;;;8.85;5.28;;;;;;;;;;4999716;28;20423;-44
2023/11/29 11:05:24;;;;;;;11.32;7.60;;;;;;;;;;5011216;28;20180;-44
2023/11/29 11:07:50;;;;;;;8.95;5.60;;;;;;;;;;5011873;28;20192;-44
2023/11/29 11:10:23;;;;;;;10.95;7.28;;;;;;;;;;4992662;28;20209;-44
2023/11/29 11:12:50;;;;;;;9.23;5.82;;;;;;;;;;5008498;28;20175;-44
2023/11/29 11:15:24;;;;;;;8.73;5.53;;;;;;;;;;4999697;28;20202;-43
2023/11/29 11:18:08;;;;;;;9.40;6.18;;;;;;;;;;5001496;28;20188;-44
2023/11/29 11:20:41;;;;;;;9.70;6.55;;;;;;;;;;5004278;28;20252;-44
2023/11/29 11:23:07;;;;;;;9.55;5.93;;;;;;;;;;5004317;28;20206;-44
2023/11/29 11:25:33;;;;;;;17.35;13.07;;;;;;;;;;5011313;28;20176;-44
2023/11/29 11:27:59;;;;;;;10.65;8.50;;;;;;;;;;4992881;28;20586;-44
2023/11/29 11:30:26;;;;;;;9.77;6.03;;;;;;;;;;5011110;28;20188;-44
2023/11/29 11:33:01;;;;;;;9.75;7.80;;;;;;;;;;5011438;28;20175;-44
2023/11/29 11:35:31;;;;;;;13.73;10.93;;;;;;;;;;5002334;28;20696;-44
2023/11/29 11:37:58;;;;;;;10.10;7.65;;;;;;;;;;5001792;28;20207;-44
2023/11/29 11:40:25;;;;;;;11.05;8.40;;;;;;;;;;5013950;28;20172;-44
2023/11/29 11:42:51;;;;;;;8.35;6.00;;;;;;;;;;4996101;28;20165;-44
2023/11/29 11:45:17;;;;;;;10.80;7.87;;;;;;;;;;5013636;28;20184;-44
2023/11/29 11:47:43;;;;;;;9.30;7.03;;;;;;;;;;5001389;28;20436;-44
2023/11/29 11:50:10;;;;;;;9.85;7.88;;;;;;;;;;5005690;28;20532;-44
2023/11/29 11:52:36;;;;;;;8.20;6.10;;;;;;;;;;5009710;28;20172;-44
2023/11/29 11:55:06;;;;;;;11.02;7.80;;;;;;;;;;4997432;28;20173;-44
2023/11/29 11:57:33;;;;;;;9.05;6.38;;;;;;;;;;5015295;28;20224;-44
2023/11/29 11:59:59;;;;;;;10.45;9.27;;;;;;;;;;4997257;28;20177;-44
2023/11/29 12:02:25;;;;;;;12.00;10.70;;;;;;;;;;5009332;28;20183;-43
2023/11/29 12:04:51;;;;;;;9.85;8.23;;;;;;;;;;5005248;28;20916;-44
2023/11/29 12:07:17;;;;;;;10.15;8.55;;;;;;;;;;5000941;28;20207;-44
2023/11/29 12:09:46;;;;;;;11.00;9.60;;;;;;;;;;5013273;28;20207;-43
2023/11/29 12:12:12;;;;;;;10.20;9.10;;;;;;;;;;4995696;28;20220;-43
2023/11/29 12:14:48;;;;;;;11.48;10.35;;;;;;;;;;5013278;28;20168;-43
2023/11/29 12:17:17;;;;;;;10.60;9.50;;;;;;;;;;4999378;28;20188;-43
2023/11/29 12:19:44;;;;;;;11.93;10.75;;;;;;;;;;5006925;28;20313;-43
2023/11/29 12:22:12;;;;;;;10.82;9.73;;;;;;;;;;5011982;28;20180;-43
2023/11/29 12:24:40;;;;;;;10.05;9.05;;;;;;;;;;5014364;28;20583;-43
2023/11/29 12:27:07;;;;;;;11.05;9.90;;;;;;;;;;5014497;28;20196;-44
2023/11/29 12:29:36;;;;;;;15.30;14.00;;;;;;;;;;5004133;28;20255;-43
2023/11/29 12:32:03;;;;;;;12.90;11.70;;;;;;;;;;5014129;28;20234;-43
2023/11/29 12:34:29;;;;;;;10.50;9.10;;;;;;;;;;5001667;28;20537;-43
2023/11/29 12:37:00;;;;;;;10.70;9.45;;;;;;;;;;5001626;28;20172;-43
2023/11/29 12:39:30;;;;;;;10.10;8.45;;;;;;;;;;5009680;28;20545;-43
2023/11/29 12:41:56;;;;;;;13.25;10.98;;;;;;;;;;5009142;28;20173;-44
2023/11/29 12:44:25;;;;;;;10.52;9.32;;;;;;;;;;5013226;28;20215;-43
2023/11/29 12:46:51;;;;;;;14.20;11.98;;;;;;;;;;5012567;28;20180;-44
2023/11/29 12:49:17;;;;;;;12.83;11.47;;;;;;;;;;5000148;28;20639;-43
2023/11/29 12:51:49;;;;;;;10.93;9.77;;;;;;;;;;5004923;28;20408;-44
2023/11/29 12:54:15;;;;;;;11.68;10.57;;;;;;;;;;5010793;28;20231;-44
2023/11/29 12:56:41;;;;;;;13.00;11.70;;;;;;;;;;5013591;28;20566;-45
2023/11/29 12:59:07;;;;;;;12.95;11.75;;;;;;;;;;5013519;28;20896;-43
2023/11/29 13:01:34;;;;;;;13.73;12.52;;;;;;;;;;5013364;28;20231;-43
2023/11/29 13:04:00;;;;;;;12.85;11.65;;;;;;;;;;5007403;28;20182;-43
2023/11/29 13:06:26;;;;;;;14.52;13.32;;;;;;;;;;5006974;28;20177;-44
2023/11/29 13:08:52;;;;;;;13.87;12.57;;;;;;;;;;5005622;28;20200;-44
2023/11/29 13:11:18;;;;;;;14.07;12.68;;;;;;;;;;5013998;28;20412;-43
2023/11/29 13:13:44;;;;;;;14.93;13.53;;;;;;;;;;5017820;28;20180;-43
2023/11/29 13:16:11;;;;;;;12.47;11.27;;;;;;;;;;4996294;28;20415;-43
2023/11/29 13:18:40;;;;;;;12.20;11.02;;;;;;;;;;5007670;28;20834;-43
2023/11/29 13:21:06;;;;;;;13.20;11.98;;;;;;;;;;5008234;28;20180;-43
2023/11/29 13:23:32;;;;;;;16.27;14.68;;;;;;;;;;5012396;28;20181;-43
2023/11/29 13:25:59;;;;;;;12.23;10.93;;;;;;;;;;5010228;28;20223;-43
2023/11/29 13:28:25;;;;;;;17.65;16.13;;;;;;;;;;5014904;28;20294;-43
2023/11/29 13:30:52;;;;;;;11.63;10.43;;;;;;;;;;5008760;28;20681;-44
2023/11/29 13:33:18;;;;;;;12.85;11.65;;;;;;;;;;5004986;28;20173;-44
2023/11/29 13:35:44;;;;;;;14.43;13.02;;;;;;;;;;5008394;28;20173;-43
2023/11/29 13:38:10;;;;;;;11.40;10.30;;;;;;;;;;5012980;28;20203;-44
2023/11/29 13:40:36;;;;;;;15.98;14.35;;;;;;;;;;5011156;28;20519;-43
2023/11/29 13:43:02;;;;;;;12.80;11.60;;;;;;;;;;5008814;28;20172;-44
2023/11/29 13:45:28;;;;;;;18.55;16.65;;;;;;;;;;5011822;28;20482;-44
2023/11/29 13:47:54;;;;;;;14.23;12.93;;;;;;;;;;5000318;28;20195;-43
2023/11/29 13:50:21;;;;;;;14.93;13.63;;;;;;;;;;5017829;28;20204;-44
2023/11/29 13:52:47;;;;;;;13.70;12.48;;;;;;;;;;4997514;28;20169;-43
2023/11/29 13:55:13;;;;;;;18.60;16.87;;;;;;;;;;4995975;28;20177;-44
2023/11/29 13:57:39;;;;;;;14.93;13.68;;;;;;;;;;5012182;28;20447;-44
2023/11/29 14:00:06;;;;;;;15.27;13.97;;;;;;;;;;5012561;28;20230;-43
2023/11/29 14:02:32;;;;;;;17.63;16.13;;;;;;;;;;5007780;28;20454;-44
2023/11/29 14:04:58;;;;;;;16.77;15.40;;;;;;;;;;5009298;28;20215;-44
2023/11/29 14:07:24;;;;;;;17.50;15.93;;;;;;;;;;5010666;28;20763;-44
2023/11/29 14:09:50;;;;;;;16.60;15.17;;;;;;;;;;5011831;28;20974;-43
2023/11/29 14:12:16;;;;;;;17.07;15.63;;;;;;;;;;5012159;28;20416;-44
2023/11/29 14:14:42;;;;;;;17.73;16.25;;;;;;;;;;5006806;28;20457;-44
2023/11/29 14:17:08;;;;;;;17.17;15.80;;;;;;;;;;5011076;28;20823;-44
2023/11/29 14:19:34;;;;;;;17.33;15.93;;;;;;;;;;5011886;28;20407;-44
2023/11/29 14:22:01;;;;;;;16.73;15.35;;;;;;;;;;5007874;28;20414;-44